Time;durP1;ratioP1;P1;durP2;ratioP2;P2;SDS_P1;SDS_P2;PMS_P1;PMS_P2;Temp;Humidity;BMP_temperature;BMP_pressure;BME280_temperature;BME280_humidity;BME280_pressure;Samples;Min_cycle;Max_cycle;Signal;HPM_P1;HPM_P2
2022/10/24 00:00:19;;;;;;;10.85;1.23;;;14.90;99.90;;;;;;5043385;28;20044;-91
2022/10/24 00:02:45;;;;;;;4.32;1.15;;;14.80;99.90;;;;;;5064895;28;20044;-90
2022/10/24 00:05:12;;;;;;;2.55;1.00;;;14.90;99.90;;;;;;5061717;28;20045;-90
2022/10/24 00:07:39;;;;;;;1.73;0.73;;;14.80;99.90;;;;;;5049319;28;20041;-90
2022/10/24 00:10:05;;;;;;;8.52;1.10;;;14.70;99.90;;;;;;5061512;28;20515;-90
2022/10/24 00:12:31;;;;;;;6.20;0.82;;;14.70;99.90;;;;;;5060463;28;20053;-91
2022/10/24 00:14:57;;;;;;;4.20;1.13;;;14.70;99.90;;;;;;5032653;28;20036;-90
2022/10/24 00:17:23;;;;;;;1.42;0.88;;;14.80;99.90;;;;;;5058292;28;20037;-91
2022/10/24 00:19:48;;;;;;;7.63;1.00;;;14.70;99.90;;;;;;5055772;28;20037;-90
2022/10/24 00:22:14;;;;;;;3.10;0.98;;;14.80;99.90;;;;;;5051759;28;20045;-91
2022/10/24 00:24:40;;;;;;;4.15;0.93;;;14.80;99.90;;;;;;5060493;28;20074;-89
2022/10/24 00:27:06;;;;;;;3.03;1.00;;;14.70;99.90;;;;;;5052107;28;20336;-90
2022/10/24 00:29:31;;;;;;;2.70;1.38;;;14.70;99.90;;;;;;5045254;28;20387;-89
2022/10/24 00:31:57;;;;;;;2.20;0.70;;;14.70;99.90;;;;;;5059995;28;20080;-89
2022/10/24 00:34:23;;;;;;;3.38;0.90;;;14.70;99.90;;;;;;5064399;28;20064;-88
2022/10/24 00:36:48;;;;;;;1.85;0.75;;;14.70;99.90;;;;;;5060283;28;20067;-89
2022/10/24 00:39:14;;;;;;;5.00;1.17;;;14.70;99.90;;;;;;5050932;28;20056;-89
2022/10/24 00:41:41;;;;;;;2.40;0.80;;;14.70;99.90;;;;;;5050731;28;20090;-89
2022/10/24 00:44:28;;;;;;;3.72;1.20;;;14.70;99.90;;;;;;5066040;28;20399;-89
2022/10/24 00:47:11;;;;;;;5.53;1.38;;;14.70;99.90;;;;;;5060568;28;20052;-89
2022/10/24 00:50:01;;;;;;;5.57;1.20;;;14.70;99.90;;;;;;5041068;28;20053;-89
2022/10/24 00:52:35;;;;;;;5.57;1.80;;;14.80;99.90;;;;;;5068127;28;20062;-90
2022/10/24 00:55:04;;;;;;;11.23;1.92;;;14.80;99.90;;;;;;5052906;28;20052;-88
2022/10/24 00:57:38;;;;;;;2.00;1.52;;;14.90;99.90;;;;;;5059945;28;20033;-90
2022/10/24 01:00:09;;;;;;;3.55;1.58;;;14.90;99.90;;;;;;5051649;28;20059;-89
2022/10/24 01:02:35;;;;;;;5.60;1.35;;;14.90;99.90;;;;;;5062705;28;20071;-89
2022/10/24 01:05:03;;;;;;;3.65;1.70;;;15.00;99.90;;;;;;5063886;28;20045;-89
2022/10/24 01:07:38;;;;;;;4.75;1.85;;;15.00;99.90;;;;;;5079690;28;20033;-89
2022/10/24 01:10:31;;;;;;;4.65;1.95;;;15.00;99.90;;;;;;5065440;28;20057;-90
2022/10/24 01:13:15;;;;;;;3.20;1.88;;;15.00;99.90;;;;;;5068102;28;20052;-89
2022/10/24 01:15:58;;;;;;;10.43;1.80;;;15.00;99.90;;;;;;5066647;28;20048;-89
2022/10/24 01:18:34;;;;;;;5.55;1.60;;;14.90;99.90;;;;;;5066695;28;20053;-89
2022/10/24 01:21:13;;;;;;;3.55;1.48;;;14.90;99.90;;;;;;5061676;28;20037;-89
2022/10/24 01:24:17;;;;;;;6.25;2.00;;;14.80;99.90;;;;;;5058889;28;20052;-88
2022/10/24 01:27:13;;;;;;;2.53;1.33;;;14.80;99.90;;;;;;5073838;28;20033;-88
2022/10/24 01:29:48;;;;;;;6.70;1.90;;;14.80;99.90;;;;;;5074281;28;20064;-88
2022/10/24 01:32:27;;;;;;;4.95;1.67;;;14.80;99.90;;;;;;5066590;28;20045;-89
2022/10/24 01:35:09;;;;;;;5.15;1.40;;;14.80;99.90;;;;;;5076111;28;20028;-88
2022/10/24 01:37:41;;;;;;;;;;;14.70;99.90;;;;;;5075325;28;20036;-88
2022/10/24 01:40:21;;;;;;;5.85;1.40;;;14.70;99.90;;;;;;5060963;28;19924;-88
2022/10/24 01:42:50;;;;;;;3.42;1.23;;;14.60;99.90;;;;;;5073334;28;20124;-88
2022/10/24 01:45:31;;;;;;;8.02;2.10;;;14.60;99.90;;;;;;5091804;28;20044;-89
2022/10/24 01:48:01;;;;;;;5.03;1.80;;;14.50;99.90;;;;;;5093828;28;20037;-89
2022/10/24 01:50:28;;;;;;;5.53;1.70;;;14.50;99.90;;;;;;5059982;28;20052;-89
2022/10/24 01:52:55;;;;;;;9.93;1.83;;;14.50;99.90;;;;;;5063035;28;20507;-89
2022/10/24 01:55:22;;;;;;;5.13;1.48;;;14.60;99.90;;;;;;5065554;28;20092;-89
2022/10/24 01:57:48;;;;;;;7.85;1.92;;;14.50;99.90;;;;;;5052293;28;20044;-90
2022/10/24 02:00:20;;;;;;;5.68;1.17;;;14.50;99.90;;;;;;5048665;28;20072;-90
2022/10/24 02:02:57;;;;;;;3.28;1.60;;;14.50;99.90;;;;;;5065436;28;20076;-88
2022/10/24 02:05:29;;;;;;;7.25;1.95;;;14.50;99.90;;;;;;5044167;28;20044;-89
2022/10/24 02:08:01;;;;;;;3.13;1.58;;;14.50;99.90;;;;;;5058271;28;20093;-89
2022/10/24 02:10:32;;;;;;;5.68;2.22;;;14.50;99.90;;;;;;5046827;28;20052;-89
2022/10/24 02:13:07;;;;;;;4.60;1.45;;;14.50;99.90;;;;;;5066713;28;20045;-90
2022/10/24 02:15:39;;;;;;;4.15;1.55;;;14.50;99.90;;;;;;5062146;28;20052;-90
2022/10/24 02:18:05;;;;;;;6.97;2.05;;;14.50;99.90;;;;;;5066303;28;20041;-90
2022/10/24 02:20:36;;;;;;;8.10;1.60;;;14.40;99.90;;;;;;5059586;28;20052;-90
2022/10/24 02:23:25;;;;;;;5.05;1.60;;;14.40;99.90;;;;;;5064510;28;20052;-90
2022/10/24 02:25:56;;;;;;;3.00;1.58;;;14.20;99.90;;;;;;5067278;28;20036;-89
2022/10/24 02:28:24;;;;;;;4.47;1.80;;;14.30;99.90;;;;;;5066769;28;20562;-90
2022/10/24 02:30:56;;;;;;;6.45;1.45;;;14.20;99.90;;;;;;5063257;28;20044;-90
2022/10/24 02:33:24;;;;;;;6.80;1.50;;;14.20;99.90;;;;;;5048857;28;20044;-91
2022/10/24 02:35:51;;;;;;;4.88;1.80;;;14.20;99.90;;;;;;5062907;28;20121;-90
2022/10/24 02:38:38;;;;;;;4.82;1.48;;;14.20;99.90;;;;;;5045211;28;20052;-91
2022/10/24 02:41:08;;;;;;;7.28;2.00;;;14.10;99.90;;;;;;5053667;28;20140;-91
2022/10/24 02:43:35;;;;;;;8.23;2.95;;;14.10;99.90;;;;;;5051846;28;20055;-91
2022/10/24 02:46:02;;;;;;;8.23;2.30;;;14.10;99.90;;;;;;5059799;28;20041;-90
2022/10/24 02:48:33;;;;;;;9.50;4.22;;;14.10;99.90;;;;;;5045760;28;20051;-90
2022/10/24 02:51:00;;;;;;;11.07;3.63;;;14.10;99.90;;;;;;5044801;28;20055;-90
2022/10/24 02:53:27;;;;;;;7.40;2.88;;;14.10;99.90;;;;;;5066738;28;20169;-90
2022/10/24 02:55:52;;;;;;;10.15;2.88;;;14.10;99.90;;;;;;5052327;28;20048;-91
2022/10/24 02:58:18;;;;;;;11.13;2.65;;;14.20;99.90;;;;;;5061484;28;20052;-91
2022/10/24 03:00:44;;;;;;;4.20;1.90;;;14.20;99.90;;;;;;5064629;28;20590;-91
2022/10/24 03:03:09;;;;;;;6.32;1.20;;;14.30;99.90;;;;;;5069085;28;20063;-89
2022/10/24 03:05:35;;;;;;;5.10;2.00;;;14.30;99.90;;;;;;5064358;28;20043;-89
2022/10/24 03:08:01;;;;;;;2.72;1.42;;;14.30;99.90;;;;;;5055693;28;20091;-91
2022/10/24 03:10:26;;;;;;;7.38;1.75;;;14.40;99.90;;;;;;5060903;28;20045;-90
2022/10/24 03:12:52;;;;;;;10.23;2.05;;;14.30;99.90;;;;;;5056993;28;20052;-89
2022/10/24 03:15:18;;;;;;;10.82;2.15;;;14.40;99.90;;;;;;5059746;28;20152;-90
2022/10/24 03:17:47;;;;;;;3.53;1.67;;;14.30;99.90;;;;;;5064318;28;20048;-90
2022/10/24 03:20:13;;;;;;;6.07;1.90;;;14.30;99.90;;;;;;5060090;28;20140;-90
2022/10/24 03:22:39;;;;;;;5.15;2.28;;;14.30;99.90;;;;;;5070909;28;20483;-91
2022/10/24 03:25:05;;;;;;;9.32;2.17;;;14.40;99.90;;;;;;5054980;28;20037;-90
2022/10/24 03:27:32;;;;;;;7.90;1.40;;;14.50;99.90;;;;;;5049345;28;20100;-90
2022/10/24 03:29:59;;;;;;;7.32;1.90;;;14.50;99.90;;;;;;5061303;28;20048;-89
2022/10/24 03:32:26;;;;;;;4.15;2.22;;;14.60;99.90;;;;;;5058787;28;20064;-88
2022/10/24 03:34:51;;;;;;;8.93;1.55;;;14.70;99.90;;;;;;5061394;28;20102;-89
2022/10/24 03:37:17;;;;;;;5.68;1.65;;;14.70;99.90;;;;;;5051004;28;20463;-90
2022/10/24 03:39:43;;;;;;;5.05;1.33;;;14.80;99.90;;;;;;5066391;28;20049;-89
2022/10/24 03:42:09;;;;;;;11.55;1.50;;;14.80;99.90;;;;;;5063757;28;20048;-89
2022/10/24 03:44:34;;;;;;;6.70;2.10;;;14.80;99.90;;;;;;5046709;28;20056;-90
2022/10/24 03:47:00;;;;;;;2.95;1.98;;;14.80;99.90;;;;;;5062606;28;20117;-90
2022/10/24 03:49:26;;;;;;;6.20;1.75;;;14.80;99.90;;;;;;5061130;28;20445;-89
2022/10/24 03:51:52;;;;;;;2.60;1.70;;;14.90;99.90;;;;;;5039587;28;20037;-89
2022/10/24 03:54:17;;;;;;;4.07;1.20;;;14.90;99.90;;;;;;5063394;28;20059;-89
2022/10/24 03:56:46;;;;;;;7.70;1.98;;;14.90;99.90;;;;;;5046507;28;20154;-89
2022/10/24 03:59:12;;;;;;;4.38;1.38;;;14.90;99.90;;;;;;5059199;28;20404;-88
2022/10/24 04:01:38;;;;;;;4.68;1.58;;;14.80;99.90;;;;;;5054807;28;20037;-89
2022/10/24 04:04:04;;;;;;;6.35;1.65;;;14.80;99.90;;;;;;5059379;28;20045;-90
2022/10/24 04:06:30;;;;;;;11.07;1.63;;;14.80;99.90;;;;;;5057522;28;20037;-89
2022/10/24 04:08:56;;;;;;;2.28;1.30;;;14.80;99.90;;;;;;5046242;28;20055;-90
2022/10/24 04:11:22;;;;;;;7.15;1.75;;;14.80;99.90;;;;;;5068440;28;20044;-89
2022/10/24 04:13:48;;;;;;;5.63;2.00;;;14.70;99.90;;;;;;5062266;28;20092;-90
2022/10/24 04:16:14;;;;;;;5.05;1.85;;;14.70;99.90;;;;;;5057688;28;20072;-89
2022/10/24 04:18:39;;;;;;;4.75;1.38;;;14.60;99.90;;;;;;5058113;28;20053;-90
2022/10/24 04:21:05;;;;;;;4.47;1.60;;;14.50;99.90;;;;;;5042847;28;20120;-89
2022/10/24 04:23:34;;;;;;;5.57;1.77;;;14.50;99.90;;;;;;5034963;28;20075;-88
2022/10/24 04:26:00;;;;;;;8.10;1.58;;;14.40;99.90;;;;;;5060008;28;20044;-88
2022/10/24 04:28:28;;;;;;;3.63;1.60;;;14.40;99.90;;;;;;5054953;28;20040;-94
2022/10/24 04:30:56;;;;;;;5.07;1.98;;;14.40;99.90;;;;;;5065300;28;20507;-92
2022/10/24 04:33:22;;;;;;;8.35;1.77;;;14.30;99.90;;;;;;5064755;28;20111;-95
2022/10/24 04:35:49;;;;;;;8.90;2.20;;;14.30;99.90;;;;;;5063423;28;20124;-95
2022/10/24 04:38:14;;;;;;;4.30;1.35;;;14.20;99.90;;;;;;5068715;28;20541;-94
2022/10/24 04:40:43;;;;;;;4.13;1.95;;;14.30;99.90;;;;;;5049777;28;20104;-93
2022/10/24 04:43:09;;;;;;;8.10;1.40;;;14.30;99.90;;;;;;5075217;28;20441;-91
2022/10/24 04:45:35;;;;;;;6.63;1.30;;;14.30;99.90;;;;;;5053840;28;20037;-94
2022/10/24 04:48:00;;;;;;;3.15;1.33;;;14.30;99.90;;;;;;5039174;28;20041;-94
2022/10/24 04:50:26;;;;;;;6.10;1.48;;;14.30;99.90;;;;;;5054080;28;20073;-94
2022/10/24 04:52:52;;;;;;;6.07;1.38;;;14.30;99.90;;;;;;5069159;28;20112;-94
2022/10/24 04:55:17;;;;;;;12.80;2.55;;;14.30;99.90;;;;;;5061107;28;20048;-95
2022/10/24 04:57:43;;;;;;;2.72;1.27;;;14.30;99.90;;;;;;5059327;28;20049;-93
2022/10/24 05:00:09;;;;;;;5.00;1.50;;;14.30;99.90;;;;;;5075924;28;20045;-93
2022/10/24 05:02:35;;;;;;;8.25;1.65;;;14.20;99.90;;;;;;5066877;28;20068;-94
2022/10/24 05:05:00;;;;;;;2.30;1.10;;;14.20;99.90;;;;;;5068875;28;20073;-93
2022/10/24 05:07:26;;;;;;;5.60;1.38;;;14.20;99.90;;;;;;5064710;28;20036;-93
2022/10/24 05:09:52;;;;;;;5.03;1.48;;;14.30;99.90;;;;;;5060951;28;20033;-92
2022/10/24 05:12:17;;;;;;;3.30;1.48;;;14.20;99.90;;;;;;5067966;28;20064;-92
2022/10/24 05:14:45;;;;;;;6.18;2.13;;;14.20;99.90;;;;;;5040768;28;20040;-93
2022/10/24 05:17:12;;;;;;;5.38;1.25;;;14.30;99.90;;;;;;5062052;28;20053;-93
2022/10/24 05:19:38;;;;;;;7.10;1.40;;;14.20;99.90;;;;;;5063335;28;20061;-88
2022/10/24 05:22:03;;;;;;;4.28;1.23;;;14.30;99.90;;;;;;5049255;28;20542;-93
2022/10/24 05:24:29;;;;;;;3.75;1.25;;;14.20;99.90;;;;;;5065699;28;20074;-93
2022/10/24 05:26:55;;;;;;;5.45;1.10;;;14.20;99.90;;;;;;5063277;28;20056;-93
2022/10/24 05:29:21;;;;;;;32.60;12.98;;;14.20;99.90;;;;;;5061901;28;20047;-93
2022/10/24 05:31:46;;;;;;;5.93;1.02;;;14.20;99.90;;;;;;5037011;28;20041;-92
2022/10/24 05:34:12;;;;;;;4.70;1.05;;;14.10;99.90;;;;;;5058923;28;20048;-91
2022/10/24 05:36:38;;;;;;;4.40;1.00;;;14.10;99.90;;;;;;5067027;28;20061;-92
2022/10/24 05:39:03;;;;;;;9.73;1.33;;;14.10;99.90;;;;;;5065514;28;20087;-91
2022/10/24 05:41:29;;;;;;;3.65;1.17;;;14.20;99.90;;;;;;5043701;28;20041;-92
2022/10/24 05:43:55;;;;;;;6.15;1.40;;;14.20;99.90;;;;;;5062789;28;20075;-93
2022/10/24 05:46:20;;;;;;;3.15;1.33;;;14.20;99.90;;;;;;5062632;28;20056;-91
2022/10/24 05:48:46;;;;;;;6.72;1.35;;;14.20;99.90;;;;;;5064516;28;21111;-91
2022/10/24 05:51:12;;;;;;;6.38;1.23;;;14.20;99.90;;;;;;5072478;28;20052;-90
2022/10/24 05:53:38;;;;;;;2.65;1.67;;;14.30;99.90;;;;;;5065068;28;20068;-89
2022/10/24 05:56:04;;;;;;;9.75;1.30;;;14.30;99.90;;;;;;5072800;28;20057;-91
2022/10/24 05:58:31;;;;;;;4.07;1.95;;;14.40;99.90;;;;;;5060946;28;20048;-88
2022/10/24 06:00:56;;;;;;;2.10;1.10;;;14.40;99.90;;;;;;5060895;28;20048;-90
2022/10/24 06:03:22;;;;;;;6.68;1.83;;;14.40;99.90;;;;;;5056927;28;20040;-89
2022/10/24 06:05:49;;;;;;;5.90;1.17;;;14.40;99.90;;;;;;5062103;28;20065;-90
2022/10/24 06:08:15;;;;;;;4.88;1.13;;;14.50;99.90;;;;;;5068894;28;20130;-89
2022/10/24 06:10:41;;;;;;;3.15;1.00;;;14.40;99.90;;;;;;5068344;28;20626;-87
2022/10/24 06:13:07;;;;;;;5.70;1.13;;;14.40;99.90;;;;;;5081582;28;20084;-87
2022/10/24 06:15:32;;;;;;;1.17;1.02;;;14.40;99.90;;;;;;5067702;28;20037;-87
2022/10/24 06:17:59;;;;;;;2.75;0.90;;;14.50;99.90;;;;;;5070419;28;20044;-87
2022/10/24 06:20:24;;;;;;;2.92;0.80;;;14.50;99.90;;;;;;5073345;28;20072;-87
2022/10/24 06:22:50;;;;;;;7.78;1.45;;;14.50;99.90;;;;;;5057589;28;20056;-87
2022/10/24 06:25:16;;;;;;;4.03;1.40;;;14.50;99.90;;;;;;5069247;28;20067;-87
2022/10/24 06:27:42;;;;;;;6.65;1.35;;;14.50;99.90;;;;;;5066306;28;20056;-87
2022/10/24 06:30:09;;;;;;;4.35;1.15;;;14.50;99.90;;;;;;5038919;28;20926;-87
2022/10/24 06:32:35;;;;;;;2.15;0.98;;;14.50;99.90;;;;;;5048545;28;20045;-87
2022/10/24 06:35:00;;;;;;;2.70;0.95;;;14.60;99.90;;;;;;5061832;28;20053;-88
2022/10/24 06:37:27;;;;;;;2.75;1.00;;;14.60;99.90;;;;;;5074370;28;20075;-86
2022/10/24 06:39:53;;;;;;;7.15;1.10;;;14.60;99.90;;;;;;5075849;28;20059;-86
2022/10/24 06:42:18;;;;;;;6.78;1.20;;;14.50;99.90;;;;;;5059572;28;20128;-87
2022/10/24 06:44:44;;;;;;;5.13;1.33;;;14.50;99.90;;;;;;5057443;28;20052;-86
2022/10/24 06:47:10;;;;;;;7.57;1.20;;;14.50;99.90;;;;;;5052234;28;20052;-85
2022/10/24 06:49:35;;;;;;;7.30;2.60;;;14.50;99.90;;;;;;5058701;28;20040;-87
2022/10/24 06:52:01;;;;;;;7.53;1.60;;;14.50;99.90;;;;;;5059328;28;20132;-86
2022/10/24 06:54:27;;;;;;;7.38;1.00;;;14.60;99.90;;;;;;5068880;28;20052;-87
2022/10/24 06:56:52;;;;;;;4.93;0.88;;;14.60;99.90;;;;;;5075595;28;20052;-89
2022/10/24 06:59:18;;;;;;;6.00;0.95;;;14.60;99.90;;;;;;5070686;28;20059;-91
2022/10/24 07:01:44;;;;;;;5.57;1.30;;;14.60;99.90;;;;;;5060097;28;20049;-92
2022/10/24 07:04:10;;;;;;;3.40;1.02;;;14.70;99.90;;;;;;5072707;28;20044;-90
2022/10/24 07:06:36;;;;;;;5.35;1.15;;;14.70;99.90;;;;;;5067791;28;20044;-89
2022/10/24 07:09:03;;;;;;;4.97;0.85;;;14.70;99.90;;;;;;5078856;28;20074;-89
2022/10/24 07:11:29;;;;;;;1.95;0.80;;;14.70;99.90;;;;;;5043132;28;20200;-89
2022/10/24 07:13:55;;;;;;;7.57;1.17;;;14.80;99.90;;;;;;5058201;28;20045;-90
2022/10/24 07:16:23;;;;;;;2.30;0.80;;;14.70;99.90;;;;;;5056660;28;20049;-91
2022/10/24 07:18:49;;;;;;;4.10;1.10;;;14.80;99.90;;;;;;5061207;28;20116;-91
2022/10/24 07:21:19;;;;;;;5.30;0.82;;;14.70;99.90;;;;;;5055956;28;20053;-91
2022/10/24 07:23:44;;;;;;;4.60;1.17;;;14.80;99.90;;;;;;5059966;28;20049;-87
2022/10/24 07:26:14;;;;;;;5.43;1.25;;;14.80;99.90;;;;;;5056054;28;20090;-89
2022/10/24 07:28:41;;;;;;;6.90;1.13;;;14.90;99.90;;;;;;5063696;28;20044;-89
2022/10/24 07:31:07;;;;;;;2.63;0.93;;;14.90;99.90;;;;;;5063072;28;20121;-90
2022/10/24 07:33:35;;;;;;;6.32;1.17;;;15.10;99.90;;;;;;5055859;28;20072;-90
2022/10/24 07:36:01;;;;;;;3.22;1.00;;;15.10;99.90;;;;;;5065879;28;20044;-90
2022/10/24 07:38:27;;;;;;;1.88;0.77;;;15.10;99.90;;;;;;5057482;28;20043;-90
2022/10/24 07:40:52;;;;;;;4.03;1.05;;;15.20;99.90;;;;;;5062649;28;20044;-89
2022/10/24 07:43:18;;;;;;;5.38;1.23;;;15.20;99.90;;;;;;5062842;28;20536;-88
2022/10/24 07:45:44;;;;;;;8.65;1.15;;;15.30;99.90;;;;;;5059750;28;20045;-89
2022/10/24 07:48:10;;;;;;;6.10;0.95;;;15.30;99.90;;;;;;5059904;28;20049;-90
2022/10/24 07:50:42;;;;;;;4.25;1.05;;;15.40;99.90;;;;;;5058188;28;20059;-90
2022/10/24 07:53:08;;;;;;;;;;;15.50;99.90;;;;;;5058291;28;20052;-91
2022/10/24 07:55:38;;;;;;;2.75;1.17;;;15.50;99.90;;;;;;5058678;28;19966;-91
2022/10/24 07:58:03;;;;;;;5.15;0.80;;;15.60;99.90;;;;;;5056772;28;20075;-92
2022/10/24 08:00:29;;;;;;;1.50;0.95;;;15.70;99.90;;;;;;5077619;28;20052;-91
2022/10/24 08:02:55;;;;;;;3.85;0.63;;;15.80;99.90;;;;;;5061817;28;20052;-90
2022/10/24 08:05:20;;;;;;;5.78;1.10;;;15.80;99.90;;;;;;5045615;28;20045;-92
2022/10/24 08:07:47;;;;;;;6.63;1.33;;;16.00;99.90;;;;;;5061994;28;20047;-90
2022/10/24 08:10:13;;;;;;;3.90;1.17;;;16.10;99.90;;;;;;5061650;28;20528;-90
2022/10/24 08:12:38;;;;;;;1.95;0.40;;;16.10;99.90;;;;;;5063889;28;20033;-91
2022/10/24 08:15:05;;;;;;;5.68;1.48;;;16.20;99.90;;;;;;5072797;28;20055;-89
2022/10/24 08:17:30;;;;;;;4.25;0.80;;;16.30;99.90;;;;;;5062036;28;20095;-92
2022/10/24 08:19:56;;;;;;;6.70;1.13;;;16.40;99.90;;;;;;5062417;28;20053;-91
2022/10/24 08:22:22;;;;;;;8.30;0.95;;;16.50;99.90;;;;;;5068843;28;20052;-93
2022/10/24 08:24:48;;;;;;;5.97;1.27;;;16.50;99.90;;;;;;5067026;28;20048;-90
2022/10/24 08:27:13;;;;;;;4.63;0.95;;;16.50;99.90;;;;;;5061719;28;20079;-92
2022/10/24 08:29:39;;;;;;;6.55;1.55;;;16.50;99.90;;;;;;5059214;28;20041;-91
2022/10/24 08:32:08;;;;;;;6.82;1.00;;;16.60;99.90;;;;;;5061010;28;20132;-90
2022/10/24 08:34:34;;;;;;;3.83;1.20;;;16.60;99.90;;;;;;5063333;28;20080;-91
2022/10/24 08:37:00;;;;;;;9.55;1.80;;;16.60;99.90;;;;;;5064365;28;20053;-91
2022/10/24 08:39:25;;;;;;;4.28;1.50;;;16.70;99.90;;;;;;5064228;28;20037;-91
2022/10/24 08:42:07;;;;;;;2.47;1.38;;;16.80;99.90;;;;;;5061159;28;20045;-92
2022/10/24 08:44:40;;;;;;;1.30;0.60;;;16.70;99.90;;;;;;5061003;28;20086;-91
2022/10/24 08:47:35;;;;;;;9.23;0.80;;;16.60;99.90;;;;;;5063896;28;20123;-89
2022/10/24 08:50:30;;;;;;;10.13;0.88;;;16.60;99.90;;;;;;5068460;28;20076;-90
2022/10/24 08:53:23;;;;;;;5.93;0.80;;;16.60;99.90;;;;;;5080432;28;20100;-90
2022/10/24 08:55:52;;;;;;;4.55;0.73;;;16.50;99.90;;;;;;5083681;28;20045;-91
2022/10/24 08:58:35;;;;;;;7.07;1.92;;;16.50;99.90;;;;;;5084564;28;20124;-92
2022/10/24 09:01:41;;;;;;;3.35;0.82;;;16.50;99.90;;;;;;5069311;28;20041;-91
2022/10/24 09:04:12;;;;;;;4.43;1.98;;;16.40;99.90;;;;;;5026694;28;20066;-90
2022/10/24 09:06:38;;;;;;;3.08;0.75;;;16.40;99.90;;;;;;5060135;28;20140;-91
2022/10/24 09:09:09;;;;;;;5.80;0.68;;;16.40;99.90;;;;;;5061573;28;20076;-91
2022/10/24 09:11:41;;;;;;;10.07;1.63;;;16.40;99.90;;;;;;5062220;28;20072;-90
2022/10/24 09:14:16;;;;;;;2.78;1.08;;;16.40;99.90;;;;;;5060484;28;20127;-90
2022/10/24 09:16:44;;;;;;;2.55;0.77;;;16.30;99.90;;;;;;5062230;28;20041;-91
2022/10/24 09:19:15;;;;;;;6.50;0.80;;;16.30;99.90;;;;;;5059955;28;20095;-91
2022/10/24 09:21:43;;;;;;;3.60;0.90;;;16.40;99.90;;;;;;5045012;28;20045;-91
2022/10/24 09:24:30;;;;;;;3.10;0.85;;;16.40;99.90;;;;;;5059904;28;20053;-91
2022/10/24 09:26:59;;;;;;;3.72;1.20;;;16.50;99.90;;;;;;5060452;28;20049;-91
2022/10/24 09:29:28;;;;;;;11.38;1.02;;;16.50;99.90;;;;;;5061826;28;20578;-90
2022/10/24 09:31:54;;;;;;;2.53;0.70;;;16.50;99.90;;;;;;5064937;28;20587;-91
2022/10/24 09:34:20;;;;;;;4.07;0.80;;;16.50;99.90;;;;;;5081399;28;20079;-91
2022/10/24 09:36:46;;;;;;;7.00;0.88;;;16.50;99.90;;;;;;5079565;28;20059;-90
2022/10/24 09:39:25;;;;;;;7.72;1.30;;;16.50;99.90;;;;;;5080988;28;20044;-91
2022/10/24 09:41:50;;;;;;;7.68;1.65;;;16.40;99.90;;;;;;5094419;28;20159;-90
2022/10/24 09:44:46;;;;;;;6.88;1.15;;;16.40;99.90;;;;;;5067348;28;20041;-89
2022/10/24 09:47:26;;;;;;;3.10;0.70;;;16.50;99.90;;;;;;5039012;28;20072;-91
2022/10/24 09:49:53;;;;;;;5.28;1.05;;;16.80;99.90;;;;;;5042980;28;20076;-90
2022/10/24 09:52:21;;;;;;;5.57;1.15;;;17.10;99.90;;;;;;5060205;28;20045;-92
2022/10/24 09:55:14;;;;;;;2.80;0.40;;;17.30;99.90;;;;;;5078234;28;20035;-90
2022/10/24 09:57:40;;;;;;;4.32;0.55;;;17.30;99.90;;;;;;5079477;28;20182;-92
2022/10/24 10:00:18;;;;;;;3.20;0.95;;;17.30;99.90;;;;;;5081192;28;20088;-91
2022/10/24 10:03:15;;;;;;;5.03;0.80;;;17.20;99.90;;;;;;5061872;28;20052;-90
2022/10/24 10:05:48;;;;;;;4.25;1.30;;;17.10;99.90;;;;;;5039194;28;20423;-91
2022/10/24 10:08:33;;;;;;;2.38;0.77;;;17.00;99.90;;;;;;5060372;28;20076;-90
2022/10/24 10:11:06;;;;;;;1.48;0.30;;;16.90;99.90;;;;;;5060122;28;20052;-90
2022/10/24 10:13:53;;;;;;;7.10;1.40;;;16.80;99.90;;;;;;5042847;28;20068;-89
2022/10/24 10:16:25;;;;;;;10.13;1.23;;;16.70;99.90;;;;;;5059221;28;20049;-89
2022/10/24 10:18:59;;;;;;;;;;;16.80;99.90;;;;;;5059194;28;20049;-88
2022/10/24 10:21:24;;;;;;;6.38;1.10;;;16.80;99.90;;;;;;5060449;28;20427;-89
2022/10/24 10:23:55;;;;;;;4.47;0.75;;;16.90;99.90;;;;;;5040783;28;20057;-88
2022/10/24 10:26:42;;;;;;;8.15;0.93;;;16.90;99.90;;;;;;5078174;28;20045;-89
2022/10/24 10:29:17;;;;;;;7.13;1.00;;;16.90;99.90;;;;;;5079294;28;20544;-90
2022/10/24 10:31:48;;;;;;;1.30;0.60;;;16.90;99.90;;;;;;5078715;28;20082;-89
2022/10/24 10:34:19;;;;;;;4.97;0.70;;;16.80;99.90;;;;;;5080117;28;20449;-89
2022/10/24 10:37:22;;;;;;;3.22;0.77;;;16.80;99.90;;;;;;5076538;28;20056;-89
2022/10/24 10:39:50;;;;;;;4.85;0.80;;;16.80;99.90;;;;;;5078897;28;20087;-89
2022/10/24 10:42:39;;;;;;;5.22;0.70;;;16.80;99.90;;;;;;5079357;28;20081;-90
2022/10/24 10:45:55;;;;;;;7.32;1.42;;;16.80;99.90;;;;;;5049609;28;20087;-89
2022/10/24 10:48:31;;;;;;;4.63;1.45;;;16.80;99.90;;;;;;5042515;28;20056;-88
2022/10/24 10:51:22;;;;;;;2.72;0.43;;;16.90;99.90;;;;;;5059380;28;20099;-89
2022/10/24 10:54:15;;;;;;;4.22;1.17;;;17.00;99.90;;;;;;5057869;28;20049;-89
2022/10/24 10:56:50;;;;;;;3.97;1.30;;;17.00;99.90;;;;;;5066809;28;20053;-88
2022/10/24 10:59:46;;;;;;;3.08;0.50;;;17.20;99.90;;;;;;5078887;28;20083;-89
2022/10/24 11:02:43;;;;;;;2.40;0.70;;;17.30;99.90;;;;;;5078250;28;20059;-89
2022/10/24 11:05:15;;;;;;;6.75;0.70;;;17.40;99.90;;;;;;5078932;28;20044;-90
2022/10/24 11:08:05;;;;;;;3.75;0.80;;;17.50;99.90;;;;;;5067848;28;20051;-88
2022/10/24 11:11:02;;;;;;;3.83;0.93;;;17.60;99.90;;;;;;5065415;28;20065;-87
2022/10/24 11:13:35;;;;;;;2.17;0.68;;;17.60;99.90;;;;;;5059672;28;20060;-88
2022/10/24 11:16:06;;;;;;;4.25;0.77;;;17.60;99.90;;;;;;5078231;28;20141;-87
2022/10/24 11:18:42;;;;;;;2.70;0.40;;;17.70;99.90;;;;;;5066264;28;20051;-88
2022/10/24 11:21:10;;;;;;;5.88;1.05;;;17.70;99.90;;;;;;5079042;28;20056;-87
2022/10/24 11:23:45;;;;;;;4.07;0.90;;;17.70;99.90;;;;;;5060645;28;20563;-87
2022/10/24 11:26:27;;;;;;;2.90;1.20;;;17.80;99.90;;;;;;5062370;28;20135;-87
2022/10/24 11:29:33;;;;;;;4.57;1.17;;;17.90;99.90;;;;;;5063920;28;20505;-87
2022/10/24 11:32:06;;;;;;;6.03;1.08;;;17.80;99.90;;;;;;5067943;28;20105;-87
2022/10/24 11:34:58;;;;;;;1.23;0.60;;;17.70;99.90;;;;;;5057990;28;20076;-87
2022/10/24 11:37:38;;;;;;;2.03;0.70;;;17.60;99.90;;;;;;5063659;28;20045;-87
2022/10/24 11:40:04;;;;;;;3.97;1.02;;;17.50;99.90;;;;;;5061739;28;20056;-87
2022/10/24 11:42:39;;;;;;;1.75;0.52;;;17.50;99.90;;;;;;5043592;28;20583;-87
2022/10/24 11:45:06;;;;;;;3.22;0.75;;;17.50;99.90;;;;;;5081148;28;20091;-89
2022/10/24 11:48:09;;;;;;;3.30;0.52;;;17.50;99.90;;;;;;5079163;28;20587;-88
2022/10/24 11:50:54;;;;;;;2.78;0.90;;;17.40;99.90;;;;;;5059529;28;20789;-89
2022/10/24 11:53:32;;;;;;;4.32;0.80;;;17.40;99.90;;;;;;5056935;28;20057;-90
2022/10/24 11:56:14;;;;;;;5.43;0.80;;;17.50;99.90;;;;;;5058801;28;20045;-88
2022/10/24 11:59:08;;;;;;;5.65;0.55;;;17.60;99.90;;;;;;5057798;28;20057;-89
2022/10/24 12:02:02;;;;;;;2.92;0.38;;;17.80;99.90;;;;;;5057078;28;20052;-88
2022/10/24 12:05:05;;;;;;;1.08;0.50;;;17.80;99.90;;;;;;5059011;28;20052;-89
2022/10/24 12:08:01;;;;;;;4.50;0.68;;;17.80;99.90;;;;;;5055756;28;20087;-89
2022/10/24 12:10:29;;;;;;;6.97;0.82;;;17.70;99.90;;;;;;5070171;28;20100;-88
2022/10/24 12:13:03;;;;;;;5.78;0.63;;;17.60;99.90;;;;;;5079043;28;20040;-87
2022/10/24 12:15:52;;;;;;;2.90;0.65;;;17.60;99.90;;;;;;5078213;28;20075;-89
2022/10/24 12:18:38;;;;;;;5.80;0.63;;;17.60;99.90;;;;;;5069393;28;20114;-89
2022/10/24 12:21:10;;;;;;;2.42;1.15;;;17.50;99.90;;;;;;5065596;28;20146;-89
2022/10/24 12:23:38;;;;;;;3.40;0.57;;;17.60;99.90;;;;;;5056899;28;20109;-89
2022/10/24 12:26:17;;;;;;;3.72;0.60;;;17.60;99.90;;;;;;5058632;28;20053;-89
2022/10/24 12:28:57;;;;;;;5.68;1.15;;;17.60;99.90;;;;;;5057491;28;20081;-89
2022/10/24 12:31:28;;;;;;;5.25;0.60;;;17.60;99.90;;;;;;5068618;28;20049;-89
2022/10/24 12:34:16;;;;;;;4.95;1.05;;;17.60;99.90;;;;;;5078246;28;20055;-89
2022/10/24 12:37:08;;;;;;;4.47;0.50;;;17.60;99.90;;;;;;5076866;28;20075;-89
2022/10/24 12:39:39;;;;;;;2.30;0.68;;;17.60;99.90;;;;;;5049165;28;20061;-89
2022/10/24 12:42:35;;;;;;;4.57;0.73;;;17.60;99.90;;;;;;5076034;28;20053;-88
2022/10/24 12:45:00;;;;;;;2.90;0.95;;;17.60;99.90;;;;;;5031636;28;20048;-89
2022/10/24 12:47:32;;;;;;;4.30;0.88;;;17.80;99.90;;;;;;5079504;28;20087;-90
2022/10/24 12:50:20;;;;;;;3.78;0.85;;;17.90;99.90;;;;;;5080841;28;20053;-90
2022/10/24 12:52:46;;;;;;;2.85;0.47;;;18.00;99.90;;;;;;5065615;28;20053;-91
2022/10/24 12:55:50;;;;;;;2.38;0.57;;;17.80;99.90;;;;;;5077759;28;20055;-90
2022/10/24 12:58:33;;;;;;;3.92;0.52;;;17.70;99.90;;;;;;5060230;28;20087;-89
2022/10/24 13:01:00;;;;;;;4.82;0.70;;;17.50;99.90;;;;;;5044290;28;20041;-89
2022/10/24 13:03:47;;;;;;;1.17;0.60;;;17.40;99.90;;;;;;5074369;28;20399;-89
2022/10/24 13:06:41;;;;;;;1.33;0.50;;;17.20;99.90;;;;;;5063548;28;20131;-92
2022/10/24 13:09:25;;;;;;;2.53;0.40;;;17.20;99.90;;;;;;5081423;28;20045;-89
2022/10/24 13:12:21;;;;;;;4.60;0.63;;;17.10;99.90;;;;;;5080693;28;20044;-88